createdAt,value
2022-12-26T00:02:03.623Z,96240.88
2022-12-26T00:04:51.927Z,96231.75
2022-12-26T00:07:20.719Z,96236.53
2022-12-26T00:09:48.302Z,96237.31
2022-12-26T00:12:15.819Z,96232.25
2022-12-26T00:14:43.326Z,96233.34
2022-12-26T00:17:10.897Z,96227.53
2022-12-26T00:19:38.564Z,96231.50
2022-12-26T00:22:06.067Z,96230.47
2022-12-26T00:24:34.957Z,96236.34
2022-12-26T00:27:02.470Z,96236.16
2022-12-26T00:29:29.954Z,96236.88
2022-12-26T00:31:57.486Z,96241.50
2022-12-26T00:34:25.007Z,96243.78
2022-12-26T00:36:52.509Z,96241.63
2022-12-26T00:39:19.987Z,96236.88
2022-12-26T00:41:48.815Z,96238.22
2022-12-26T00:44:16.361Z,96248.59
2022-12-26T00:46:43.876Z,96240.75
2022-12-26T00:49:11.453Z,96239.97
2022-12-26T00:51:38.963Z,96235.19
2022-12-26T00:54:06.550Z,96235.81
2022-12-26T00:56:34.040Z,96243.25
2022-12-26T00:59:02.926Z,96243.44
2022-12-26T01:01:31.418Z,96242.44
2022-12-26T01:03:59.651Z,96250.31
2022-12-26T01:06:27.315Z,96257.38
2022-12-26T01:08:55.797Z,96265.13
2022-12-26T01:11:37.335Z,96267.44
2022-12-26T01:14:06.548Z,96260.78
2022-12-26T01:16:34.145Z,96262.69
2022-12-26T01:19:01.949Z,96278.97
2022-12-26T01:21:29.483Z,96276.50
2022-12-26T01:23:57.221Z,96264.72
2022-12-26T01:26:24.763Z,96265.91
2022-12-26T01:28:53.979Z,96268.75
2022-12-26T01:31:23.849Z,96276.84
2022-12-26T01:33:51.407Z,96271.72
2022-12-26T01:36:19.391Z,96267.13
2022-12-26T01:38:47.142Z,96259.34
2022-12-26T01:41:19.191Z,96262.50
2022-12-26T01:43:54.857Z,96275.19
2022-12-26T01:46:28.767Z,96270.38
2022-12-26T01:48:59.432Z,96276.56
2022-12-26T01:51:29.595Z,96268.44
2022-12-26T01:54:41.289Z,96270.34
2022-12-26T01:56:49.367Z,96268.75
2022-12-26T01:59:21.810Z,96268.94
2022-12-26T02:01:54.130Z,96265.22
2022-12-26T02:04:44.078Z,96268.03
2022-12-26T02:07:11.724Z,96269.59
2022-12-26T02:09:39.626Z,96265.13
2022-12-26T02:12:35.917Z,96267.56
2022-12-26T02:15:05.899Z,96268.41
2022-12-26T02:17:34.906Z,96260.97
2022-12-26T02:20:14.031Z,96269.47
2022-12-26T02:23:20.216Z,96264.63
2022-12-26T02:26:33.992Z,96256.03
2022-12-26T02:29:25.879Z,96246.69
2022-12-26T02:32:07.788Z,96259.41
2022-12-26T02:34:45.557Z,96260.13
2022-12-26T02:37:25.610Z,96259.13
2022-12-26T02:40:21.202Z,96250.69
2022-12-26T02:42:59.235Z,96236.56
2022-12-26T02:45:50.691Z,96255.00
2022-12-26T02:48:28.103Z,96253.84
2022-12-26T02:51:23.983Z,96260.06
2022-12-26T02:54:18.812Z,96241.78
2022-12-26T02:57:18.403Z,96251.47
2022-12-26T03:00:13.281Z,96243.22
2022-12-26T03:03:03.985Z,96227.53
2022-12-26T03:05:54.158Z,96228.25
2022-12-26T03:08:46.608Z,96222.59
2022-12-26T03:11:32.084Z,96231.44
2022-12-26T03:14:07.970Z,96237.56
2022-12-26T03:16:53.154Z,96246.66
2022-12-26T03:19:23.027Z,96241.78
2022-12-26T03:21:52.802Z,96230.81
2022-12-26T03:24:22.602Z,96231.59
2022-12-26T03:26:54.190Z,96234.91
2022-12-26T03:29:41.587Z,96230.25
2022-12-26T03:32:11.439Z,96244.22
2022-12-26T03:34:41.361Z,96245.59
2022-12-26T03:37:49.307Z,96253.81
2022-12-26T03:40:43.309Z,96234.59
2022-12-26T03:43:39.280Z,96240.25
2022-12-26T03:46:35.611Z,96231.44
2022-12-26T03:49:27.569Z,96236.50
2022-12-26T03:52:18.307Z,96238.28
2022-12-26T03:55:14.234Z,96248.47
2022-12-26T03:58:06.326Z,96254.78
2022-12-26T04:00:53.358Z,96245.44
2022-12-26T04:03:42.346Z,96259.50
2022-12-26T04:06:35.763Z,96272.13
2022-12-26T04:09:26.734Z,96253.84
2022-12-26T04:12:16.477Z,96258.25
2022-12-26T04:15:06.219Z,96250.47
2022-12-26T04:18:08.121Z,96251.75
2022-12-26T04:20:40.894Z,96253.00
2022-12-26T04:23:37.630Z,96261.75
2022-12-26T04:26:27.283Z,96267.00
2022-12-26T04:29:13.797Z,96264.81
2022-12-26T04:32:03.908Z,96274.25
2022-12-26T04:34:58.717Z,96272.13
2022-12-26T04:37:47.302Z,96265.38
2022-12-26T04:40:37.686Z,96263.06
2022-12-26T04:43:49.388Z,96262.81
2022-12-26T04:46:14.918Z,96270.47
2022-12-26T04:49:02.487Z,96274.91
2022-12-26T04:51:30.034Z,96269.59
2022-12-26T04:53:57.545Z,96263.50
2022-12-26T04:56:25.203Z,96258.22
2022-12-26T04:58:53.221Z,96265.72
2022-12-26T05:01:40.328Z,96258.94
2022-12-26T05:04:32.567Z,96259.97
2022-12-26T05:07:19.013Z,96250.66
2022-12-26T05:09:50.119Z,96254.38
2022-12-26T05:12:17.702Z,96252.44
2022-12-26T05:14:45.200Z,96240.19
2022-12-26T05:17:32.476Z,96236.25
2022-12-26T05:20:17.902Z,96241.25
2022-12-26T05:23:04.681Z,96249.41
2022-12-26T05:25:53.207Z,96255.56
2022-12-26T05:28:42.398Z,96264.09
2022-12-26T05:31:10.454Z,96266.50
2022-12-26T05:33:57.232Z,96266.84
2022-12-26T05:36:28.733Z,96272.50
2022-12-26T05:38:57.010Z,96266.84
2022-12-26T05:41:25.085Z,96267.19
2022-12-26T05:43:52.750Z,96274.81
2022-12-26T05:46:20.283Z,96267.19
2022-12-26T05:48:49.129Z,96272.34
2022-12-26T05:51:16.624Z,96274.72
2022-12-26T05:53:44.135Z,96271.75
2022-12-26T05:56:13.581Z,96276.69
2022-12-26T05:58:41.820Z,96287.00
2022-12-26T06:01:11.424Z,96273.38
2022-12-26T06:03:40.013Z,96267.13
2022-12-26T06:06:08.946Z,96270.94
2022-12-26T06:08:37.359Z,96276.13
2022-12-26T06:11:06.381Z,96268.66
2022-12-26T06:13:33.909Z,96260.53
2022-12-26T06:16:05.947Z,96267.16
2022-12-26T06:18:33.667Z,96273.50
2022-12-26T06:21:03.988Z,96271.50
2022-12-26T06:23:32.808Z,96266.38
2022-12-26T06:26:00.325Z,96262.56
2022-12-26T06:28:28.245Z,96272.16
2022-12-26T06:30:55.945Z,96276.50
2022-12-26T06:33:23.421Z,96283.13
2022-12-26T06:35:50.891Z,96276.66
2022-12-26T06:38:18.381Z,96277.97
2022-12-26T06:40:47.221Z,96273.50
2022-12-26T06:43:14.723Z,96271.84
2022-12-26T06:45:42.195Z,96268.47
2022-12-26T06:48:09.695Z,96262.38
2022-12-26T06:50:37.311Z,96268.03
2022-12-26T06:53:04.817Z,96253.91
2022-12-26T06:55:32.370Z,96252.25
2022-12-26T06:58:01.249Z,96251.94
2022-12-26T07:00:30.214Z,96253.25
2022-12-26T07:02:57.908Z,96258.53
2022-12-26T07:05:25.502Z,96255.22
2022-12-26T07:07:53.405Z,96259.19
2022-12-26T07:10:21.590Z,96257.91
2022-12-26T07:12:49.655Z,96255.44
2022-12-26T07:15:18.563Z,96252.16
2022-12-26T07:17:46.069Z,96244.59
2022-12-26T07:20:13.863Z,96247.47
2022-12-26T07:22:41.417Z,96259.56
2022-12-26T07:25:09.832Z,96273.88
2022-12-26T07:27:37.291Z,96280.69
2022-12-26T07:30:05.407Z,96273.84
2022-12-26T07:32:34.267Z,96282.78
2022-12-26T07:35:01.836Z,96274.09
2022-12-26T07:37:29.317Z,96278.69
2022-12-26T07:39:59.137Z,96277.63
2022-12-26T07:42:27.135Z,96284.97
2022-12-26T07:44:54.664Z,96292.38
2022-12-26T07:47:22.281Z,96293.00
2022-12-26T07:49:51.127Z,96294.03
2022-12-26T07:52:19.851Z,96299.06
2022-12-26T07:54:47.368Z,96300.97
2022-12-26T07:57:47.033Z,96300.97
2022-12-26T08:00:02.354Z,96313.19
2022-12-26T08:02:30.042Z,96308.25
2022-12-26T08:04:58.957Z,96318.84
2022-12-26T08:07:26.555Z,96325.59
2022-12-26T08:09:54.098Z,96324.13
2022-12-26T08:12:24.369Z,96314.59
2022-12-26T08:14:51.981Z,96307.63
2022-12-26T08:17:19.794Z,96312.94
2022-12-26T08:19:47.288Z,96306.88
2022-12-26T08:22:16.361Z,96300.28
2022-12-26T08:24:43.854Z,96307.31
2022-12-26T08:27:12.036Z,96311.09
2022-12-26T08:29:39.540Z,96303.69
2022-12-26T08:32:07.025Z,96304.72
2022-12-26T08:34:35.360Z,96308.22
2022-12-26T08:37:03.054Z,96307.16
2022-12-26T08:39:31.911Z,96308.03
2022-12-26T08:41:59.430Z,96316.94
2022-12-26T08:44:28.335Z,96314.53
2022-12-26T08:46:56.249Z,96324.59
2022-12-26T08:49:23.770Z,96321.84
2022-12-26T08:51:51.619Z,96317.34
2022-12-26T08:54:19.165Z,96303.56
2022-12-26T08:56:47.985Z,96313.34
2022-12-26T08:59:15.678Z,96316.69
2022-12-26T09:01:43.336Z,96305.41
2022-12-26T09:04:11.121Z,96304.72
2022-12-26T09:06:40.335Z,96291.09
2022-12-26T09:09:14.048Z,96304.41
2022-12-26T09:11:42.501Z,96296.06
2022-12-26T09:14:12.147Z,96296.19
2022-12-26T09:16:49.337Z,96302.38
2022-12-26T09:19:18.596Z,96293.47
2022-12-26T09:21:47.261Z,96297.22
2022-12-26T09:24:16.399Z,96310.41
2022-12-26T09:26:44.608Z,96318.03
2022-12-26T09:29:14.443Z,96315.88
2022-12-26T09:31:42.153Z,96331.78
2022-12-26T09:34:09.797Z,96329.88
2022-12-26T09:36:39.369Z,96332.53
2022-12-26T09:39:07.885Z,96335.09
2022-12-26T09:42:02.764Z,96344.13
2022-12-26T09:44:44.626Z,96348.69
2022-12-26T09:47:25.166Z,96346.50
2022-12-26T09:49:58.863Z,96344.47
2022-12-26T09:52:38.030Z,96347.25
2022-12-26T09:55:17.633Z,96337.50
2022-12-26T09:57:50.425Z,96331.81
2022-12-26T10:00:22.215Z,96338.75
2022-12-26T10:02:53.609Z,96340.16
2022-12-26T10:05:22.920Z,96344.28
2022-12-26T10:07:56.250Z,96338.13
2022-12-26T10:10:29.721Z,96327.22
2022-12-26T10:13:01.578Z,96330.59
2022-12-26T10:15:40.616Z,96314.28
2022-12-26T10:18:24.534Z,96325.41
2022-12-26T10:21:08.484Z,96317.56
2022-12-26T10:23:39.664Z,96314.53
2022-12-26T10:26:13.623Z,96316.78
2022-12-26T10:28:47.133Z,96321.03
2022-12-26T10:31:21.998Z,96325.22
2022-12-26T10:33:54.150Z,96331.56
2022-12-26T10:36:33.417Z,96331.22
2022-12-26T10:39:03.762Z,96326.53
2022-12-26T10:41:37.587Z,96318.53
2022-12-26T10:44:05.347Z,96325.22
2022-12-26T10:46:54.659Z,96297.72
2022-12-26T10:49:25.459Z,96295.38
2022-12-26T10:51:55.280Z,96290.44
2022-12-26T10:54:22.794Z,96295.75
2022-12-26T10:56:52.683Z,96293.09
2022-12-26T10:59:23.225Z,96289.28
2022-12-26T11:01:52.784Z,96284.78
2022-12-26T11:05:10.493Z,96289.22
2022-12-26T11:07:13.004Z,96287.34
2022-12-26T11:09:42.603Z,96296.75
2022-12-26T11:12:21.659Z,96306.88
2022-12-26T11:14:49.769Z,96304.59
2022-12-26T11:17:28.749Z,96300.81
2022-12-26T11:20:24.309Z,96307.56
2022-12-26T11:22:52.472Z,96317.19
2022-12-26T11:25:22.978Z,96317.09
2022-12-26T11:27:53.100Z,96316.50
2022-12-26T11:30:27.225Z,96326.63
2022-12-26T11:33:14.443Z,96332.88
2022-12-26T11:35:51.150Z,96344.66
2022-12-26T11:38:44.143Z,96353.53
2022-12-26T11:41:36.146Z,96356.00
2022-12-26T11:44:12.792Z,96347.75
2022-12-26T11:46:43.286Z,96348.22
2022-12-26T11:49:20.572Z,96347.47
2022-12-26T11:51:54.159Z,96351.56
2022-12-26T11:54:30.151Z,96351.44
2022-12-26T11:57:20.231Z,96367.81
2022-12-26T11:59:48.785Z,96374.09
2022-12-26T12:02:26.577Z,96381.34
2022-12-26T12:04:58.640Z,96370.28
2022-12-26T12:07:39.252Z,96393.25
2022-12-26T12:10:32.336Z,96405.66
2022-12-26T12:13:08.929Z,96414.66
2022-12-26T12:15:45.213Z,96416.34
2022-12-26T12:18:20.416Z,96428.56
2022-12-26T12:21:00.751Z,96424.34
2022-12-26T12:23:44.262Z,96420.50
2022-12-26T12:26:16.213Z,96413.97
2022-12-26T12:29:04.939Z,96417.00
2022-12-26T12:31:42.793Z,96404.88
2022-12-26T12:34:23.930Z,96401.41
2022-12-26T12:37:12.440Z,96383.38
2022-12-26T12:39:49.650Z,96365.25
2022-12-26T12:42:36.233Z,96377.06
2022-12-26T12:45:27.747Z,96362.56
2022-12-26T12:48:10.286Z,96356.44
2022-12-26T12:50:44.490Z,96359.16
2022-12-26T12:53:24.036Z,96345.72
2022-12-26T12:56:05.803Z,96347.72
2022-12-26T12:58:41.208Z,96351.81
2022-12-26T13:01:13.471Z,96348.75
2022-12-26T13:03:48.795Z,96349.56
2022-12-26T13:06:19.971Z,96368.56
2022-12-26T13:08:53.988Z,96356.19
2022-12-26T13:11:26.399Z,96339.44
2022-12-26T13:13:57.317Z,96337.25
2022-12-26T13:16:28.472Z,96338.78
2022-12-26T13:19:00.738Z,96340.59
2022-12-26T13:21:32.125Z,96346.09
2022-12-26T13:24:23.722Z,96352.13
2022-12-26T13:26:58.473Z,96362.72
2022-12-26T13:29:36.485Z,96364.25
2022-12-26T13:32:06.619Z,96391.19
2022-12-26T13:34:34.441Z,96412.31
2022-12-26T13:37:02.246Z,96414.84
2022-12-26T13:39:41.296Z,96390.63
2022-12-26T13:42:54.756Z,96359.47
2022-12-26T13:45:48.512Z,96392.00
2022-12-26T13:48:47.775Z,96382.31
2022-12-26T13:51:44.156Z,96347.66
2022-12-26T13:54:14.219Z,96352.88
2022-12-26T13:57:27.955Z,96366.16
2022-12-26T14:00:18.130Z,96361.72
2022-12-26T14:03:20.236Z,96396.28
2022-12-26T14:06:08.366Z,96391.28
2022-12-26T14:08:52.960Z,96396.50
2022-12-26T14:11:38.342Z,96397.81
2022-12-26T14:14:18.888Z,96385.69
2022-12-26T14:16:52.535Z,96397.44
2022-12-26T14:19:36.232Z,96405.28
2022-12-26T14:22:12.577Z,96390.25
2022-12-26T14:24:54.229Z,96389.16
2022-12-26T14:27:37.960Z,96391.63
2022-12-26T14:30:22.707Z,96375.06
2022-12-26T14:33:03.340Z,96392.44
2022-12-26T14:35:38.027Z,96403.53
2022-12-26T14:38:29.753Z,96389.13
2022-12-26T14:41:04.622Z,96398.06
2022-12-26T14:43:38.284Z,96389.59
2022-12-26T14:46:46.182Z,96397.94
2022-12-26T14:49:24.448Z,96386.56
2022-12-26T14:51:52.546Z,96387.47
2022-12-26T14:54:50.808Z,96388.25
2022-12-26T14:57:50.319Z,96391.03
2022-12-26T15:00:35.122Z,96379.13
2022-12-26T15:03:24.488Z,96372.88
2022-12-26T15:05:52.449Z,96373.38
2022-12-26T15:08:39.265Z,96366.16
2022-12-26T15:11:26.208Z,96361.16
2022-12-26T15:14:21.855Z,96356.06
2022-12-26T15:17:06.210Z,96352.53
2022-12-26T15:20:11.616Z,96348.63
2022-12-26T15:22:58.719Z,96361.75
2022-12-26T15:26:05.063Z,96378.72
2022-12-26T15:28:53.696Z,96378.31
2022-12-26T15:31:56.745Z,96383.25
2022-12-26T15:34:39.247Z,96392.81
2022-12-26T15:37:15.854Z,96381.72
2022-12-26T15:39:51.922Z,96383.63
2022-12-26T15:42:31.348Z,96366.34
2022-12-26T15:45:21.737Z,96386.66
2022-12-26T15:48:02.596Z,96387.69
2022-12-26T15:50:36.624Z,96375.41
2022-12-26T15:53:21.655Z,96376.88
2022-12-26T15:56:11.950Z,96383.56
2022-12-26T15:58:55.125Z,96370.28
2022-12-26T16:01:44.927Z,96381.88
2022-12-26T16:04:22.019Z,96388.44
2022-12-26T16:07:21.165Z,96371.00
2022-12-26T16:09:53.393Z,96383.53
2022-12-26T16:12:24.911Z,96381.47
2022-12-26T16:15:02.723Z,96374.91
2022-12-26T16:17:30.693Z,96379.31
2022-12-26T16:19:59.479Z,96389.59
2022-12-26T16:22:43.546Z,96377.66
2022-12-26T16:25:15.313Z,96377.84
2022-12-26T16:27:44.018Z,96361.00
2022-12-26T16:30:17.114Z,96384.16
2022-12-26T16:32:45.715Z,96399.16
2022-12-26T16:35:21.523Z,96394.88
2022-12-26T16:37:51.160Z,96401.88
2022-12-26T16:40:28.596Z,96389.53
2022-12-26T16:42:59.483Z,96380.94
2022-12-26T16:45:28.553Z,96374.34
2022-12-26T16:47:56.701Z,96403.00
2022-12-26T16:50:26.066Z,96397.28
2022-12-26T16:53:04.788Z,96401.09
2022-12-26T16:55:41.929Z,96402.16
2022-12-26T16:58:20.616Z,96407.34
2022-12-26T17:01:08.207Z,96401.25
2022-12-26T17:03:41.681Z,96380.81
2022-12-26T17:06:13.484Z,96376.09
2022-12-26T17:08:44.062Z,96395.53
2022-12-26T17:11:13.463Z,96389.41
2022-12-26T17:13:41.937Z,96391.16
2022-12-26T17:16:11.176Z,96393.47
2022-12-26T17:18:50.478Z,96374.97
2022-12-26T17:21:28.889Z,96379.41
2022-12-26T17:24:22.622Z,96374.84
2022-12-26T17:27:10.685Z,96368.63
2022-12-26T17:29:51.068Z,96377.19
2022-12-26T17:32:27.632Z,96374.56
2022-12-26T17:34:55.506Z,96370.44
2022-12-26T17:37:26.251Z,96377.28
2022-12-26T17:40:02.555Z,96371.28
2022-12-26T17:42:41.011Z,96382.94
2022-12-26T17:45:15.226Z,96371.50
2022-12-26T17:47:42.709Z,96373.53
2022-12-26T17:50:10.505Z,96375.91
2022-12-26T17:52:38.325Z,96374.66
2022-12-26T17:55:12.347Z,96365.03
2022-12-26T17:57:41.172Z,96378.59
2022-12-26T18:00:16.479Z,96379.88
2022-12-26T18:02:44.039Z,96373.22
2022-12-26T18:05:12.036Z,96376.28
2022-12-26T18:07:39.637Z,96388.09
2022-12-26T18:10:08.170Z,96392.63
2022-12-26T18:12:35.674Z,96395.31
2022-12-26T18:15:04.921Z,96387.94
2022-12-26T18:17:34.225Z,96389.03
2022-12-26T18:20:02.058Z,96389.13
2022-12-26T18:22:29.624Z,96388.97
2022-12-26T18:24:57.160Z,96387.50
2022-12-26T18:27:30.039Z,96360.81
2022-12-26T18:29:57.891Z,96363.38
2022-12-26T18:32:29.676Z,96383.91
2022-12-26T18:34:57.260Z,96391.34
2022-12-26T18:37:26.551Z,96382.97
2022-12-26T18:39:54.833Z,96376.22
2022-12-26T18:42:22.411Z,96381.34
2022-12-26T18:44:49.898Z,96376.81
2022-12-26T18:47:20.580Z,96371.41
2022-12-26T18:49:50.063Z,96377.00
2022-12-26T18:52:18.308Z,96378.28
2022-12-26T18:54:46.446Z,96368.81
2022-12-26T18:57:19.949Z,96366.84
2022-12-26T18:59:48.304Z,96364.72
2022-12-26T19:02:18.085Z,96366.06
2022-12-26T19:04:46.468Z,96379.00
2022-12-26T19:07:16.144Z,96383.19
2022-12-26T19:09:45.132Z,96375.41
2022-12-26T19:12:12.674Z,96371.59
2022-12-26T19:14:41.004Z,96386.91
2022-12-26T19:17:08.480Z,96387.66
2022-12-26T19:19:36.035Z,96392.28
2022-12-26T19:22:04.026Z,96380.63
2022-12-26T19:24:33.944Z,96382.50
2022-12-26T19:27:01.938Z,96388.50
2022-12-26T19:29:29.645Z,96396.88
2022-12-26T19:31:57.419Z,96401.56
2022-12-26T19:34:25.031Z,96399.75
2022-12-26T19:36:52.488Z,96401.72
2022-12-26T19:39:20.069Z,96394.06
2022-12-26T19:41:48.955Z,96389.25
2022-12-26T19:44:16.764Z,96395.91
2022-12-26T19:46:44.240Z,96397.13
2022-12-26T19:49:11.693Z,96397.88
2022-12-26T19:51:39.206Z,96398.75
2022-12-26T19:54:06.900Z,96402.78
2022-12-26T19:56:34.776Z,96411.66
2022-12-26T19:59:03.676Z,96416.47
2022-12-26T20:01:32.911Z,96412.38
2022-12-26T20:04:02.087Z,96410.00
2022-12-26T20:06:31.291Z,96415.47
2022-12-26T20:09:00.462Z,96434.50
2022-12-26T20:11:30.733Z,96427.97
2022-12-26T20:13:59.990Z,96439.47
2022-12-26T20:17:03.805Z,96444.06
2022-12-26T20:19:17.109Z,96454.88
2022-12-26T20:21:44.768Z,96464.25
2022-12-26T20:24:13.019Z,96468.28
2022-12-26T20:26:41.712Z,96480.81
2022-12-26T20:29:09.919Z,96483.94
2022-12-26T20:31:39.509Z,96492.41
2022-12-26T20:34:07.450Z,96484.47
2022-12-26T20:36:37.300Z,96497.84
2022-12-26T20:39:06.824Z,96507.00
2022-12-26T20:41:34.765Z,96509.38
2022-12-26T20:44:02.455Z,96507.69
2022-12-26T20:46:32.921Z,96513.69
2022-12-26T20:49:05.138Z,96522.31
2022-12-26T20:51:38.263Z,96533.94
2022-12-26T20:54:07.475Z,96523.53
2022-12-26T20:56:35.459Z,96523.09
2022-12-26T20:59:03.184Z,96529.31
2022-12-26T21:01:31.292Z,96535.03
2022-12-26T21:03:59.023Z,96517.81
2022-12-26T21:06:29.994Z,96532.53
2022-12-26T21:08:58.032Z,96521.31
2022-12-26T21:11:28.083Z,96534.88
2022-12-26T21:13:59.125Z,96519.78
2022-12-26T21:16:29.731Z,96504.34
2022-12-26T21:18:58.210Z,96505.31
2022-12-26T21:21:29.178Z,96503.81
2022-12-26T21:23:57.970Z,96508.53
2022-12-26T21:26:26.429Z,96507.00
2022-12-26T21:28:58.433Z,96485.88
2022-12-26T21:31:26.378Z,96492.97
2022-12-26T21:33:56.417Z,96490.88
2022-12-26T21:36:24.246Z,96507.84
2022-12-26T21:38:53.680Z,96490.06
2022-12-26T21:41:22.142Z,96501.47
2022-12-26T21:43:49.989Z,96501.75
2022-12-26T21:46:20.883Z,96512.56
2022-12-26T21:48:49.873Z,96517.13
2022-12-26T21:51:19.132Z,96526.31
2022-12-26T21:53:47.593Z,96530.38
2022-12-26T21:56:17.269Z,96540.09
2022-12-26T21:59:03.122Z,96550.69
2022-12-26T22:01:31.625Z,96550.13
2022-12-26T22:04:16.797Z,96553.75
2022-12-26T22:06:44.330Z,96551.22
2022-12-26T22:09:12.782Z,96557.34
2022-12-26T22:11:59.375Z,96565.16
2022-12-26T22:14:26.887Z,96573.25
2022-12-26T22:16:55.184Z,96578.66
2022-12-26T22:19:24.391Z,96586.88
2022-12-26T22:21:51.909Z,96600.03
2022-12-26T22:24:21.282Z,96598.75
2022-12-26T22:26:50.163Z,96601.78
2022-12-26T22:29:17.812Z,96607.06
2022-12-26T22:31:45.424Z,96616.16
2022-12-26T22:34:16.284Z,96624.06
2022-12-26T22:36:44.426Z,96626.94
2022-12-26T22:39:16.139Z,96633.69
2022-12-26T22:41:43.745Z,96634.25
2022-12-26T22:44:12.619Z,96645.88
2022-12-26T22:46:40.536Z,96641.63
2022-12-26T22:49:08.186Z,96640.06
2022-12-26T22:51:35.711Z,96640.44
2022-12-26T22:54:03.493Z,96640.34
2022-12-26T22:56:31.383Z,96643.63
2022-12-26T22:59:00.920Z,96636.31
2022-12-26T23:01:30.208Z,96636.19
2022-12-26T23:03:58.322Z,96637.34
2022-12-26T23:06:28.773Z,96644.03
2022-12-26T23:08:58.924Z,96636.19
2022-12-26T23:11:34.443Z,96639.78
2022-12-26T23:14:04.736Z,96641.63
2022-12-26T23:16:39.852Z,96641.75
2022-12-26T23:19:32.082Z,96645.38
2022-12-26T23:22:01.939Z,96645.81
2022-12-26T23:24:32.091Z,96637.53
2022-12-26T23:27:17.443Z,96648.50
2022-12-26T23:30:11.049Z,96651.16
2022-12-26T23:32:41.139Z,96664.94
2022-12-26T23:35:10.364Z,96658.09
2022-12-26T23:37:38.890Z,96670.28
2022-12-26T23:40:08.108Z,96670.75
2022-12-26T23:42:35.646Z,96670.94
2022-12-26T23:45:03.303Z,96663.97
2022-12-26T23:47:30.789Z,96660.19
2022-12-26T23:49:59.591Z,96667.50
2022-12-26T23:52:30.493Z,96672.06
2022-12-26T23:54:58.261Z,96675.63
2022-12-26T23:57:26.219Z,96667.97
2022-12-26T23:59:54.087Z,96673.59
